Meath Environmental Platform

Observations for Trim Market St

Time AQI Temp °C Hum % Pres Pa CO μg/m³ H₂S μg/m³ NO μg/m³ NO₂ μg/m³ O₃ μg/m³ SO₂ μg/m³ PM1 μg/m³ PM2.5 μg/m³ PM10 μg/m³
Friday 10 July 2026
05:31 1 16.9 81 2,147,483,647 0.14 0 0 4.5 10.01 0 9.26 11.48 17.65
05:29 1 16.9 81 2,147,483,647 0.14 0 0 10.92 15.73 0 7.84 10.55 15.97
05:28 1 16.8 81 2,147,483,647 0.14 0 0 6.64 14.05 0 6.41 9.13 13.16
05:24 1 16.8 81 2,147,483,647 0.26 0 13.16 14.55 2.25 0 7.84 9.61 15.42
05:23 1 16.8 81 2,147,483,647 0.2 0 19.18 17.25 0 0 7.13 11.02 17.11
05:22 1 16.9 81 2,147,483,647 0.13 0 7.39 12.04 8.73 0 8.55 9.62 13.73
05:13 1 16.8 80 2,147,483,647 0.12 0 0 4.08 11.45 0 9.26 12.92 19.38
05:12 1 16.8 80 2,147,483,647 0.12 0 0 9.58 16.65 0 10.69 12.45 17.69
05:11 1 16.8 80 2,147,483,647 0.12 0 2.21 5.29 12.33 0 11.4 14.34 19.96
05:10 1 16.8 80 2,147,483,647 0.11 0 0 4.49 9.43 0 7.84 11.52 16.57
05:09 1 16.8 80 2,147,483,647 0.12 0 0 7.79 15.95 0 11.4 14.34 21.09
05:08 1 16.9 80 2,147,483,647 0.12 0 0 4.97 12.77 0 9.26 12.47 17.15
05:07 1 16.8 80 2,147,483,647 0.14 0 0.04 3.2 8.07 0 9.26 11.52 16.58
05:06 1 16.8 80 2,147,483,647 0.12 0 0 10.6 24.76 0 9.98 13.88 19.97
05:05 1 16.8 80 2,147,483,647 0.1 0 0 4.71 8.55 0 4.99 8.7 13.76
05:04 1 16.9 80 2,147,483,647 0.08 0 0 2.18 5.91 0 8.55 11.06 15.46
05:03 1 16.9 80 2,147,483,647 0.09 0 0 7.59 14.9 0 7.13 9.65 15.47
05:02 1 16.9 80 2,147,483,647 0.11 0 0 10.59 23.21 0 7.84 11.07 16.6
05:01 1 16.9 80 2,147,483,647 0.15 0 15.3 13.69 4.2 0 8.55 14.37 21.13
04:59 1 16.9 80 2,147,483,647 0.08 0 0 0.21 10.75 0 4.28 7.3 10.94